Weather observations for the past three days for
Pocatello, Pocatello Regional Airport
Imperial (Metric)
Date Time (mdt) Wind (mph) Vis. (mi.) Weather Sky Cond. Temperature (ºF) Relative Humidity Wind Chill (°F) Heat Index (°F) Pressure Precipitation (in)
Air Dwpt 6 hour altimeter (in) sea level (mb) 1 hr 3 hr 6 hr
Max. Min.
05 03:53 SW 15 10.00 Fair CLR 53.1 42.1 66% 30.02 1012.8
05 02:53 SW 14 10.00 Fair CLR 55 42.1 62% 30.01 1012.2
05 01:53 SW 17 10.00 Fair CLR 55.9 42.1 60% 29.99 1011.6
05 00:53 SW 17 10.00 Fair CLR 57 43 60% 29.95 1010.7
04 23:53 SW 18 G 26 10.00 Fair CLR 57 44.1 79 57 62% 29.94 1010.5
04 22:53 SW 20 10.00 Fair CLR 59 45 60% 29.93 1010.1
04 21:53 SW 21 10.00 Fair and Breezy CLR 63 44.1 50% 29.9 1009.3
04 20:53 E 6 10.00 Fair CLR 68 39 35% 29.87 1007.9
04 19:53 NE 10 10.00 Fair CLR 71.1 39.9 32% 29.86 1007.9
04 18:53 N 6 10.00 Fair CLR 77 39 26% 77 29.88 1008.2
04 17:53 N 6 10.00 Fair CLR 79 39 79 63 24% 78 29.89 1008.5
04 16:53 NW 10 G 16 10.00 Fair CLR 78.1 41 27% 78 29.9 1008.8
04 15:53 NW 10 10.00 Fair CLR 77 42.1 29% 78 29.91 1009.3
04 14:53 NW 9 10.00 Fair CLR 75 44.1 33% 77 29.93 1009.4
04 13:53 NW 9 10.00 Fair CLR 71.1 44.1 38% 29.95 1009.3
04 12:53 Vrbl 5 10.00 Fair CLR 68 44.1 42% 29.97 1011.4
04 11:53 Vrbl 3 10.00 Fair CLR 63 44.1 63 46 50% 30 1012.6
04 10:53 W 7 10.00 Fair CLR 60.1 43 53% 30 1012.4
04 09:53 SW 7 10.00 Fair CLR 55.9 43 62% 30.01 1012.8
04 08:53 W 16 10.00 Fair CLR 53.1 42.1 66% 30 1013.0
04 07:53 SW 17 10.00 Fair CLR 48 41 77% 42 29.98 1011.9
04 06:53 SW 15 G 24 10.00 Fair CLR 46 39.9 79% 40 29.95 1010.9
04 05:53 SW 20 10.00 Fair CLR 48 39.9 73 46.9 74% 42 29.94 1010.3
04 04:53 SW 22 G 29 10.00 Fair and Breezy CLR 48 41 77% 41 29.92 1009.6
04 03:53 SW 28 G 36 10.00 Fair and Windy CLR 48 42.1 80% 40 29.88 1008.2
04 02:53 SW 30 G 45 10.00 Fair and Windy CLR 54 44.1 69% 29.82 1005.8
04 01:53 S 17 G 28 10.00 Fair CLR 71.1 26.1 19% 29.73 1001.7
04 00:53 SW 6 10.00 Fair CLR 57 26.1 30% 29.74 1002.9
03 23:53 SW 7 10.00 Fair CLR 59 26.1 78.1 59 28% 29.76 1003.5
03 22:53 E 6 10.00 Fair CLR 63 26.1 25% 29.79 1004.6
03 21:53 S 12 10.00 Fair CLR 64.9 26.1 23% 29.81 1005.2
03 20:53 S 9 10.00 Fair CLR 64 28 26% 29.81 1005.6
03 19:53 S 12 10.00 Fair CLR 73.9 24.1 15% 29.82 1005.7
03 18:53 SW 12 10.00 Fair CLR 75.9 25 15% 76 29.84 1006.2
03 17:53 N 7 10.00 Fair CLR 78.1 34 78.1 69.1 20% 77 29.84 1006.0
03 16:53 N 7 10.00 Fair CLR 75.9 34 22% 77 29.86 1006.9
03 15:53 Vrbl 6 10.00 Fair CLR 75.9 33.1 21% 76 29.88 1007.6
03 14:53 N 8 10.00 Fair CLR 75 32 21% 76 29.91 1008.9
03 13:53 W 8 G 20 10.00 Fair CLR 73 34 24% 29.94 1009.7
03 12:53 W 9 10.00 Fair CLR 73 32 22% 29.97 1010.9
03 11:53 SW 10 10.00 A Few Clouds FEW120 70 32 71.1 52 25% 29.99 1011.9
03 10:53 Calm 10.00 Fair CLR 66 36 33% 30 1012.0
03 09:53 Vrbl 3 10.00 Fair CLR 64 36 35% 30 1012.4
03 08:53 SW 7 10.00 Fair CLR 63 33.1 33% 30.01 1012.6
03 07:53 S 7 10.00 Fair CLR 57.9 35.1 42% 30 1012.5
03 06:53 S 8 10.00 Fair CLR 53.1 36 52% 29.99 1011.9
03 05:53 SW 8 10.00 Fair CLR 57 33.1 60.1 55 41% 29.99 1011.6
03 04:53 S 7 10.00 Fair CLR 55.9 32 40% 29.97 1010.9
03 03:53 SW 7 10.00 Fair CLR 57.9 30 35% 29.96 1010.6
03 02:53 S 6 10.00 Fair CLR 55.9 30.9 39% 29.95 1010.4
03 01:53 S 5 10.00 Fair CLR 57 32 39% 29.95 1010.3
03 00:53 Calm 10.00 Fair CLR 57 32 39% 29.94 1009.8
02 23:53 S 3 10.00 Partly Cloudy SCT110 57 35.1 71.1 57 44% 29.95 1010.1
02 22:53 SW 6 10.00 Mostly Cloudy BKN120 62.1 28 28% 29.97 1010.9
02 21:53 SW 7 10.00 A Few Clouds FEW120 62.1 28.9 29% 29.97 1010.9
02 20:53 S 6 10.00 Fair CLR 62.1 30.9 31% 29.96 1010.2
02 19:53 W 5 10.00 Fair CLR 64 30.9 29% 29.95 1009.6
02 18:53 W 10 10.00 Fair CLR 70 30.9 23% 29.94 1009.0
02 17:53 W 13 10.00 Fair CLR 71.1 30.9 75 71.1 23% 29.94 1009.0
02 16:53 SW 14 G 20 10.00 Fair CLR 75 26.1 16% 76 29.94 1008.8
02 15:53 W 13 10.00 Fair CLR 73 24.1 16% 29.94 1008.8
02 14:53 W 18 10.00 Fair CLR 73 24.1 16% 29.94 1008.7
02 13:53 W 18 10.00 Fair CLR 73 23 15% 29.95 1009.4
02 12:53 W 21 10.00 Fair and Breezy CLR 73.9 24.1 15% 29.96 1009.5
02 11:53 W 23 G 33 10.00 Fair and Breezy CLR 73 26.1 73 66.9 17% 29.97 1009.8
02 10:53 SW 22 G 29 10.00 A Few Clouds and Breezy FEW075 70 27 20% 29.97 1009.8
02 09:53 SW 30 G 37 10.00 Fair and Windy CLR 69.1 27 21% 29.94 1009.1
02 08:53 W 28 G 35 10.00 Fair and Windy CLR 71.1 37 29% 29.9 1007.9
02 07:53 S 21 10.00 Fair and Breezy CLR 71.1 41 34% 29.87 1006.6
02 06:53 S 20 G 30 10.00 Partly Cloudy SCT120 70 42.1 37% 29.86 1005.8
02 05:53 S 23 G 32 10.00 Fair and Breezy CLR 71.1 43 73 70 36% 29.85 1005.3
Date Time (mdt) Wind (mph) Vis. (mi.) Weather Sky Cond. Air Dwpt Max. Min. Relative Humidity Wind Chill (°F) Heat Index (°F) altimeter (in) sea level (mb) 1 hr 3 hr 6 hr
6 hour
Temperature (ºF) Pressure Precipitation (in)